createdAt,value
2022-11-08T07:38:23.998Z,5.93
2022-11-08T07:40:52.079Z,7.20
2022-11-08T07:43:19.993Z,7.10
2022-11-08T07:45:48.638Z,5.57
2022-11-08T07:48:16.186Z,4.95
2022-11-08T07:50:43.616Z,7.93
2022-11-08T07:53:11.673Z,6.53
2022-11-08T07:58:08.205Z,5.35
2022-11-08T08:00:37.785Z,5.85
2022-11-08T08:03:07.874Z,6.63
2022-11-08T08:05:40.673Z,5.28
2022-11-08T08:08:11.266Z,6.10
2022-11-08T08:10:40.072Z,7.55
2022-11-08T08:13:15.725Z,5.45
2022-11-08T08:15:46.381Z,5.97
2022-11-08T08:18:14.069Z,7.47
2022-11-08T08:20:41.518Z,7.72
2022-11-08T08:23:09.349Z,7.43
2022-11-08T08:28:06.545Z,5.90
2022-11-08T08:30:34.972Z,7.20
2022-11-08T08:33:27.425Z,7.47
2022-11-08T08:36:02.691Z,5.97
2022-11-08T08:38:31.617Z,5.07
2022-11-08T08:41:02.937Z,5.03
2022-11-08T08:43:33.001Z,3.75
2022-11-08T08:46:02.464Z,4.05
2022-11-08T08:48:30.980Z,5.15
2022-11-08T08:50:58.337Z,3.65
2022-11-08T08:53:26.426Z,4.50
2022-11-08T08:55:53.985Z,5.55
2022-11-08T08:58:23.006Z,4.70
2022-11-08T09:03:41.457Z,4.00
2022-11-08T09:08:38.721Z,4.80
2022-11-08T09:11:09.223Z,4.00
2022-11-08T09:13:39.738Z,5.88
2022-11-08T09:16:08.574Z,4.40
2022-11-08T09:18:36.806Z,3.70
2022-11-08T09:21:04.766Z,4.00
2022-11-08T09:26:11.294Z,3.67
2022-11-08T09:28:39.533Z,4.25
2022-11-08T09:31:09.738Z,4.45
2022-11-08T09:33:38.136Z,4.28
2022-11-08T09:36:07.322Z,4.10
2022-11-08T09:38:35.319Z,4.70
2022-11-08T09:41:12.309Z,5.88
2022-11-08T09:43:57.273Z,5.00
2022-11-08T09:46:51.810Z,3.20
2022-11-08T09:49:34.161Z,4.32
2022-11-08T09:52:06.790Z,4.32
2022-11-08T09:54:45.841Z,4.03
2022-11-08T09:57:25.130Z,3.75
2022-11-08T10:00:01.733Z,4.35
2022-11-08T10:02:29.336Z,3.95
2022-11-08T10:05:06.188Z,4.47
2022-11-08T10:07:37.528Z,3.78
2022-11-08T10:10:38.117Z,5.78
2022-11-08T10:13:23.305Z,4.47
2022-11-08T10:16:02.814Z,3.53
2022-11-08T10:18:36.499Z,5.20
2022-11-08T10:21:25.486Z,2.90
2022-11-08T10:24:05.133Z,3.67
2022-11-08T10:26:48.332Z,4.18
2022-11-08T10:29:20.012Z,5.25
2022-11-08T10:32:04.695Z,3.75
2022-11-08T10:34:45.075Z,3.95
2022-11-08T10:37:15.456Z,3.75
2022-11-08T10:39:59.451Z,4.13
2022-11-08T10:42:39.954Z,4.00
2022-11-08T10:45:18.312Z,4.15
2022-11-08T10:47:47.350Z,2.72
2022-11-08T10:50:20.253Z,3.78
2022-11-08T10:53:01.374Z,3.00
2022-11-08T10:55:47.831Z,3.78
2022-11-08T10:58:44.378Z,4.45
2022-11-08T11:01:14.914Z,3.05
2022-11-08T11:03:44.732Z,4.32
2022-11-08T11:06:31.129Z,2.90
2022-11-08T11:09:01.654Z,4.70
2022-11-08T11:11:32.160Z,4.03
2022-11-08T11:14:22.972Z,3.83
2022-11-08T11:17:12.077Z,4.32
2022-11-08T11:19:48.353Z,3.45
2022-11-08T11:22:16.143Z,4.05
2022-11-08T11:27:25.059Z,4.22
2022-11-08T11:30:13.429Z,4.60
2022-11-08T11:32:58.336Z,3.30
2022-11-08T11:35:32.666Z,3.65
2022-11-08T11:38:08.304Z,4.53
2022-11-08T11:40:44.350Z,3.85
2022-11-08T11:43:34.725Z,3.67
2022-11-08T11:46:33.591Z,2.90
2022-11-08T11:49:13.210Z,3.53
2022-11-08T11:51:58.033Z,3.92
2022-11-08T11:54:34.368Z,3.25
2022-11-08T11:57:08.897Z,3.33
2022-11-08T12:00:21.796Z,3.47
2022-11-08T12:18:43.990Z,3.50
2022-11-08T12:21:11.963Z,3.33
2022-11-08T12:23:48.818Z,3.05
2022-11-08T12:26:25.152Z,3.45
2022-11-08T12:28:57.355Z,3.50
2022-11-08T12:31:32.490Z,3.85
2022-11-08T12:34:35.783Z,3.92
2022-11-08T12:37:24.411Z,2.88
2022-11-08T12:40:01.324Z,2.97
2022-11-08T12:42:55.010Z,2.70
2022-11-08T12:46:20.540Z,3.78
2022-11-08T12:49:00.320Z,2.95
2022-11-08T12:51:43.441Z,3.33
2022-11-08T12:54:23.037Z,2.92
2022-11-08T12:56:53.314Z,3.85
2022-11-08T12:59:29.731Z,3.90
2022-11-08T13:01:59.181Z,3.15
2022-11-08T13:04:29.938Z,3.47
2022-11-08T13:07:18.464Z,3.63
2022-11-08T13:09:59.292Z,3.33
2022-11-08T13:12:53.378Z,3.85
2022-11-08T13:15:25.891Z,3.08
2022-11-08T13:18:10.186Z,2.75
2022-11-08T13:20:43.742Z,2.58
2022-11-08T13:23:30.755Z,2.47
2022-11-08T13:26:26.675Z,3.30
2022-11-08T13:28:55.048Z,2.75
2022-11-08T13:31:43.055Z,3.38
2022-11-08T13:34:35.860Z,2.90
2022-11-08T13:40:55.846Z,4.22
2022-11-08T14:58:36.055Z,2.80
2022-11-08T15:05:48.472Z,3.13
2022-11-08T15:12:03.728Z,3.40
2022-11-08T15:15:20.510Z,3.60
2022-11-08T15:21:37.597Z,2.80
2022-11-08T15:24:35.921Z,2.95
2022-11-08T15:28:02.868Z,2.67
2022-11-08T15:30:39.799Z,2.80
2022-11-08T17:36:30.240Z,4.43
2022-11-08T17:38:57.933Z,2.80
2022-11-08T17:41:25.424Z,3.10
2022-11-08T17:43:56.114Z,4.00
2022-11-08T17:46:23.783Z,3.63
2022-11-08T17:48:51.546Z,3.03
2022-11-08T17:51:24.426Z,4.15
2022-11-08T17:54:30.275Z,4.07
2022-11-08T17:57:00.748Z,3.70
2022-11-08T17:59:31.895Z,3.50
2022-11-08T18:01:59.828Z,4.68
2022-11-08T18:07:45.460Z,3.22
2022-11-08T18:10:23.241Z,2.42
2022-11-08T18:12:50.699Z,2.35
2022-11-08T18:15:39.775Z,3.42
2022-11-08T18:18:13.360Z,3.08
2022-11-08T18:21:11.974Z,2.63
2022-11-08T18:27:00.670Z,3.05
2022-11-08T18:31:59.579Z,3.00
2022-11-08T18:34:30.289Z,2.95
2022-11-08T18:37:00.356Z,2.55
2022-11-08T18:39:28.024Z,2.72
2022-11-08T18:41:55.460Z,3.20
2022-11-08T18:44:22.986Z,2.58
2022-11-08T18:46:53.638Z,3.28
2022-11-08T18:49:21.157Z,2.53
2022-11-08T18:51:52.846Z,2.55
2022-11-08T18:54:20.823Z,3.33
2022-11-08T18:56:48.816Z,3.38
2022-11-08T19:01:43.271Z,2.53
2022-11-08T19:04:13.609Z,2.65
2022-11-08T19:06:48.838Z,2.55
2022-11-08T19:11:28.117Z,3.58
2022-11-08T19:12:10.819Z,2.25
2022-11-08T19:14:38.631Z,3.92
2022-11-08T19:17:06.017Z,2.28
2022-11-08T19:19:35.116Z,2.95
2022-11-08T19:22:09.632Z,2.65
2022-11-08T19:24:37.096Z,2.40
2022-11-08T19:27:04.827Z,2.85
2022-11-08T19:29:32.330Z,2.80
2022-11-08T19:34:52.828Z,2.13
2022-11-08T19:37:19.987Z,2.38
2022-11-08T19:39:49.977Z,3.33
2022-11-08T19:42:17.213Z,2.78
2022-11-08T19:44:47.356Z,2.92
2022-11-08T19:47:14.793Z,3.83
2022-11-08T19:49:42.215Z,2.35
2022-11-08T19:52:09.688Z,3.10
2022-11-08T19:54:37.203Z,3.53
2022-11-08T19:57:05.834Z,2.47
2022-11-08T19:59:33.910Z,2.50
2022-11-08T20:02:23.780Z,2.83
2022-11-08T20:07:17.510Z,2.67
2022-11-08T20:09:47.952Z,2.83
2022-11-08T20:12:15.352Z,3.40
2022-11-08T20:14:42.650Z,5.53
2022-11-08T20:17:09.900Z,4.60
2022-11-08T20:19:37.452Z,4.35
2022-11-08T20:22:04.626Z,3.38
2022-11-08T20:24:31.948Z,3.97
2022-11-08T20:26:59.337Z,4.07
2022-11-08T20:29:29.845Z,3.72
2022-11-08T20:31:57.387Z,3.78
2022-11-08T20:34:26.310Z,3.47
2022-11-08T20:36:54.343Z,1.90
2022-11-08T20:39:21.811Z,2.42
2022-11-08T20:41:49.228Z,2.40
2022-11-08T20:44:17.082Z,2.92
2022-11-08T20:46:44.701Z,4.30
2022-11-08T20:49:12.006Z,2.95
2022-11-08T20:51:39.243Z,4.45
2022-11-08T20:54:07.530Z,4.03
2022-11-08T20:56:36.558Z,2.85
2022-11-08T20:59:04.311Z,3.40
2022-11-08T21:01:33.222Z,4.18
2022-11-08T21:04:01.500Z,4.40
2022-11-08T21:06:32.946Z,2.63
2022-11-08T21:11:49.643Z,2.42
2022-11-08T21:14:47.892Z,2.88
2022-11-08T21:17:22.448Z,4.07
2022-11-08T21:19:51.378Z,3.50
2022-11-08T21:22:29.673Z,3.15
2022-11-08T21:25:00.437Z,2.78
2022-11-08T21:27:34.578Z,3.10
2022-11-08T21:30:04.987Z,3.97
2022-11-08T21:33:05.173Z,3.17
2022-11-08T21:35:35.908Z,2.90
2022-11-08T21:38:04.750Z,2.80
2022-11-08T21:40:37.006Z,3.83
2022-11-08T21:43:09.802Z,3.30
2022-11-08T21:45:37.461Z,2.50
2022-11-08T21:48:14.153Z,3.47
2022-11-08T21:50:47.584Z,3.70
2022-11-08T21:53:19.116Z,3.53
2022-11-08T21:55:49.125Z,3.00
2022-11-08T21:58:16.673Z,3.80
2022-11-08T22:00:51.456Z,3.78
2022-11-08T22:03:28.184Z,2.60
2022-11-08T22:05:55.514Z,2.33
2022-11-08T22:08:31.261Z,3.63
2022-11-08T22:10:58.714Z,3.10
2022-11-08T22:13:38.061Z,3.63
2022-11-08T22:16:08.778Z,2.53
2022-11-08T22:19:03.533Z,2.60
2022-11-08T22:21:39.956Z,2.00
2022-11-08T22:24:15.940Z,3.58
2022-11-08T22:26:48.637Z,2.53
2022-11-08T22:29:16.983Z,3.08
2022-11-08T22:32:04.523Z,3.45
2022-11-08T22:37:45.588Z,3.17
2022-11-08T22:40:17.790Z,4.97
2022-11-08T22:42:47.513Z,3.67
2022-11-08T22:45:36.927Z,4.35
2022-11-08T22:48:04.339Z,4.00
2022-11-08T22:50:31.919Z,3.72
2022-11-08T22:52:59.480Z,3.45
2022-11-08T22:55:41.308Z,2.75
2022-11-08T22:58:23.322Z,3.55
2022-11-08T23:01:20.271Z,3.03
2022-11-08T23:04:00.145Z,3.42
2022-11-08T23:06:32.114Z,3.60
2022-11-08T23:09:07.835Z,3.15
2022-11-08T23:12:08.329Z,3.53
2022-11-08T23:17:44.617Z,4.70
2022-11-08T23:20:32.975Z,4.57
2022-11-08T23:23:49.276Z,3.88
2022-11-08T23:26:10.032Z,4.07
2022-11-08T23:28:56.231Z,3.85
2022-11-08T23:32:01.629Z,3.60
2022-11-08T23:34:29.907Z,4.63
2022-11-08T23:36:57.049Z,4.40
2022-11-08T23:39:24.518Z,5.15
2022-11-08T23:42:10.695Z,4.35
2022-11-08T23:44:38.350Z,3.80
2022-11-08T23:47:29.021Z,4.65
2022-11-08T23:49:56.638Z,4.38
2022-11-08T23:52:39.371Z,4.32
2022-11-08T23:55:11.573Z,3.90
2022-11-08T23:57:39.205Z,4.70
